1885 NOT_NAMED (1885021S16076)


IBTrACS version v04r00. Visit IBTrACS website for data access.
Please direct all questions to the IBTrACS Q and A forum

Storm track - Intensity - Wind Radii - Intensity Data - Source Data - All data

Summary Information

Storm ID 1885021S16076
Start Jan 21 06Z
End Jan 30 06Z
ATCF IDs
Track status Best track data.

Storm track plot

Map of storm track

Intensity plots

No Intensity information for this storm


Radial wind information

No radial wind information for this storm


Position and Intensity Table

BASIN ISO_TIME_________ NATURE LAT LON
degrees north degrees east
SI 1885-01-21 06:00:00 NR -15.70 76.40
SI 09:00:00 NR -15.72 76.30
SI 12:00:00 NR -15.74 76.20
SI 15:00:00 NR -15.77 76.09
SI 18:00:00 NR -15.80 75.97
SI 21:00:00 NR -15.83 75.82
SI 1885-01-22 00:00:00 NR -15.88 75.65
SI 03:00:00 NR -15.93 75.44
SI 06:00:00 NR -16.00 75.20
SI 09:00:00 NR -16.08 74.92
SI 12:00:00 NR -16.17 74.60
SI 15:00:00 NR -16.27 74.25
SI 18:00:00 NR -16.38 73.88
SI 21:00:00 NR -16.50 73.50
SI 1885-01-23 00:00:00 NR -16.63 73.10
SI 03:00:00 NR -16.76 72.70
SI 06:00:00 NR -16.90 72.30
SI 09:00:00 NR -17.03 71.94
SI 12:00:00 NR -17.17 71.57
SI 15:00:00 NR -17.31 71.21
SI 18:00:00 NR -17.45 70.84
SI 21:00:00 NR -17.61 70.46
SI 1885-01-24 00:00:00 NR -17.76 70.08
SI 03:00:00 NR -17.93 69.69
SI 06:00:00 NR -18.10 69.30
SI 09:00:00 NR -18.29 68.87
SI 12:00:00 NR -18.48 68.42
SI 15:00:00 NR -18.68 67.97
SI 18:00:00 NR -18.87 67.53
SI 21:00:00 NR -19.07 67.09
SI 1885-01-25 00:00:00 NR -19.26 66.67
SI 03:00:00 NR -19.44 66.27
SI 06:00:00 NR -19.60 65.90
SI 09:00:00 NR -19.73 65.60
SI 12:00:00 NR -19.84 65.34
SI 15:00:00 NR -19.95 65.09
SI 18:00:00 NR -20.05 64.87
SI 21:00:00 NR -20.15 64.64
SI 1885-01-26 00:00:00 NR -20.25 64.41
SI 03:00:00 NR -20.37 64.17
SI 06:00:00 NR -20.50 63.90
SI 09:00:00 NR -20.66 63.58
SI 12:00:00 NR -20.83 63.23
SI 15:00:00 NR -21.01 62.87
SI 18:00:00 NR -21.20 62.50
SI 21:00:00 NR -21.39 62.11
SI 1885-01-27 00:00:00 NR -21.59 61.71
SI 03:00:00 NR -21.80 61.31
SI 06:00:00 NR -22.00 60.90
SI 09:00:00 NR -22.20 60.50
SI 12:00:00 NR -22.40 60.10
SI 15:00:00 NR -22.60 59.69
SI 18:00:00 NR -22.80 59.27
SI 21:00:00 NR -23.00 58.85
SI 1885-01-28 00:00:00 NR -23.20 58.44
SI 03:00:00 NR -23.40 58.02
SI 06:00:00 NR -23.60 57.60
SI 09:00:00 NR -23.81 57.14
SI 12:00:00 NR -24.03 56.68
SI 15:00:00 NR -24.24 56.21
SI 18:00:00 NR -24.44 55.77
SI 21:00:00 NR -24.63 55.34
SI 1885-01-29 00:00:00 NR -24.81 54.95
SI 03:00:00 NR -24.97 54.60
SI 06:00:00 NR -25.10 54.30
SI 09:00:00 NR -25.21 54.06
SI 12:00:00 NR -25.29 53.88
SI 15:00:00 NR -25.36 53.74
SI 18:00:00 NR -25.41 53.65
SI 21:00:00 NR -25.44 53.58
SI 1885-01-30 00:00:00 NR -25.47 53.54
SI 03:00:00 NR -25.48 53.52
SI 06:00:00 NR -25.50 53.50

Source Information

Agency Information
USA
TOKYO
CMA
HKO
NEWDELHI
REUNION WMO-Best-Tracks.txt:Line=1397:xxxx885205
BOM
NADI
WELLINGTON
DS824
TD9636
TD9635
NEUMANN
MLC

All available IBTrACS Data

SEASON BASIN SUBBASIN ISO_TIME_________ NATURE LAT LON WMO AGENCY DIST2LAND LANDFALL IFLAG USA SSHS REUNION LAT REUNION LON REUNION TYPE REUNION TNUM STORM SPEED STORM DIR
Year degrees north degrees east km km 1 degrees north degrees east 1 kts degrees
1885 SI MM 1885-01-21 06:00:00 NR -15.70 76.40 reunion 2032 2021 _____O________ -1 -15.70 76.40 99 9.90 2 257
1885 SI MM 09:00:00 NR -15.72 76.30 2021 2011 _____P________ -1 -15.72 76.30 99 2 258
1885 SI MM 12:00:00 NR -15.74 76.20 2011 1998 _____P________ -1 -15.74 76.20 99 2 257
1885 SI MM 15:00:00 NR -15.77 76.09 1998 1987 _____P________ -1 -15.77 76.09 99 2 256
1885 SI MM 18:00:00 NR -15.80 75.97 1987 1967 _____P________ -1 -15.80 75.97 99 3 256
1885 SI MM 21:00:00 NR -15.83 75.82 1967 1953 _____P________ -1 -15.83 75.82 99 3 255
1885 SI MM 1885-01-22 00:00:00 NR -15.88 75.65 1943 1933 _____P________ -1 -15.88 75.65 99 4 255
1885 SI MM 03:00:00 NR -15.93 75.44 1923 1899 _____P________ -1 -15.93 75.44 99 4 254
1885 SI MM 06:00:00 NR -16.00 75.20 reunion 1899 1865 _____O________ -1 -16.00 75.20 99 9.90 5 254
1885 SI MM 09:00:00 NR -16.08 74.92 1865 1831 _____P________ -1 -16.08 74.92 99 6 253
1885 SI MM 12:00:00 NR -16.17 74.60 1831 1797 _____P________ -1 -16.17 74.60 99 7 253
1885 SI MM 15:00:00 NR -16.27 74.25 1797 1753 _____P________ -1 -16.27 74.25 99 7 253
1885 SI MM 18:00:00 NR -16.38 73.88 1753 1709 _____P________ -1 -16.38 73.88 99 8 252
1885 SI MM 21:00:00 NR -16.50 73.50 1709 1665 _____P________ -1 -16.50 73.50 99 8 252
1885 SI MM 1885-01-23 00:00:00 NR -16.63 73.10 1665 1618 _____P________ -1 -16.63 73.10 99 8 251
1885 SI MM 03:00:00 NR -16.76 72.70 1618 1574 _____P________ -1 -16.76 72.70 99 8 251
1885 SI MM 06:00:00 NR -16.90 72.30 reunion 1574 1540 _____O________ -1 -16.90 72.30 99 9.90 8 250
1885 SI MM 09:00:00 NR -17.03 71.94 1530 1493 _____P________ -1 -17.03 71.94 99 7 249
1885 SI MM 12:00:00 NR -17.17 71.57 1493 1449 _____P________ -1 -17.17 71.57 99 8 248
1885 SI MM 15:00:00 NR -17.31 71.21 1449 1415 _____P________ -1 -17.31 71.21 99 8 248
1885 SI MM 18:00:00 NR -17.45 70.84 1402 1368 _____P________ -1 -17.45 70.84 99 8 247
1885 SI MM 21:00:00 NR -17.61 70.46 1368 1322 _____P________ -1 -17.61 70.46 99 8 247
1885 SI MM 1885-01-24 00:00:00 NR -17.76 70.08 1322 1278 _____P________ -1 -17.76 70.08 99 8 246
1885 SI MM 03:00:00 NR -17.93 69.69 1278 1232 _____P________ -1 -17.93 69.69 99 8 246
1885 SI MM 06:00:00 NR -18.10 69.30 reunion 1232 1185 _____O________ -1 -18.10 69.30 99 9.90 9 246
1885 SI MM 09:00:00 NR -18.29 68.87 1185 1129 _____P________ -1 -18.29 68.87 99 9 246
1885 SI MM 12:00:00 NR -18.48 68.42 1129 1083 _____P________ -1 -18.48 68.42 99 9 245
1885 SI MM 15:00:00 NR -18.68 67.97 1083 1038 _____P________ -1 -18.68 67.97 99 9 245
1885 SI MM 18:00:00 NR -18.87 67.53 1027 982 _____P________ -1 -18.87 67.53 99 9 245
1885 SI MM 21:00:00 NR -19.07 67.09 982 939 _____P________ -1 -19.07 67.09 99 9 245
1885 SI MM 1885-01-25 00:00:00 NR -19.26 66.67 937 894 _____P________ -1 -19.26 66.67 99 9 245
1885 SI MM 03:00:00 NR -19.44 66.27 894 850 _____P________ -1 -19.44 66.27 99 8 245
1885 SI MM 06:00:00 NR -19.60 65.90 reunion 850 817 _____O________ -1 -19.60 65.90 99 9.90 7 245
1885 SI MM 09:00:00 NR -19.73 65.60 817 795 _____P________ -1 -19.73 65.60 99 6 246
1885 SI MM 12:00:00 NR -19.84 65.34 785 763 _____P________ -1 -19.84 65.34 99 5 245
1885 SI MM 15:00:00 NR -19.95 65.09 763 741 _____P________ -1 -19.95 65.09 99 5 245
1885 SI MM 18:00:00 NR -20.05 64.87 741 720 _____P________ -1 -20.05 64.87 99 5 245
1885 SI MM 21:00:00 NR -20.15 64.64 709 688 _____P________ -1 -20.15 64.64 99 5 244
1885 SI MM 1885-01-26 00:00:00 NR -20.25 64.41 688 667 _____P________ -1 -20.25 64.41 99 5 243
1885 SI MM 03:00:00 NR -20.37 64.17 667 636 _____P________ -1 -20.37 64.17 99 5 243
1885 SI MM 06:00:00 NR -20.50 63.90 reunion 636 605 _____O________ -1 -20.50 63.90 99 9.90 6 242
1885 SI MM 09:00:00 NR -20.66 63.58 605 575 _____P________ -1 -20.66 63.58 99 7 242
1885 SI MM 12:00:00 NR -20.83 63.23 564 536 _____P________ -1 -20.83 63.23 99 7 242
1885 SI MM 15:00:00 NR -21.01 62.87 536 498 _____P________ -1 -21.01 62.87 99 8 242
1885 SI MM 18:00:00 NR -21.20 62.50 498 463 _____P________ -1 -21.20 62.50 99 8 242
1885 SI MM 21:00:00 NR -21.39 62.11 463 430 _____P________ -1 -21.39 62.11 99 8 242
1885 SI MM 1885-01-27 00:00:00 NR -21.59 61.71 430 399 _____P________ -1 -21.59 61.71 99 8 242
1885 SI MM 03:00:00 NR -21.80 61.31 399 371 _____P________ -1 -21.80 61.31 99 9 242
1885 SI MM 06:00:00 NR -22.00 60.90 reunion 371 346 _____O________ -1 -22.00 60.90 99 9.90 8 242
1885 SI MM 09:00:00 NR -22.20 60.50 346 326 _____P________ -1 -22.20 60.50 99 8 242
1885 SI MM 12:00:00 NR -22.40 60.10 326 311 _____P________ -1 -22.40 60.10 99 9 242
1885 SI MM 15:00:00 NR -22.60 59.69 312 302 _____P________ -1 -22.60 59.69 99 9 242
1885 SI MM 18:00:00 NR -22.80 59.27 305 300 _____P________ -1 -22.80 59.27 99 9 242
1885 SI MM 21:00:00 NR -23.00 58.85 305 301 _____P________ -1 -23.00 58.85 99 9 242
1885 SI MM 1885-01-28 00:00:00 NR -23.20 58.44 310 308 _____P________ -1 -23.20 58.44 99 9 242
1885 SI MM 03:00:00 NR -23.40 58.02 325 314 _____P________ -1 -23.40 58.02 99 9 243
1885 SI MM 06:00:00 NR -23.60 57.60 reunion 316 309 _____O________ -1 -23.60 57.60 99 9.90 9 243
1885 SI MM 09:00:00 NR -23.81 57.14 309 309 _____P________ -1 -23.81 57.14 99 9 243
1885 SI MM 12:00:00 NR -24.03 56.68 311 308 _____P________ -1 -24.03 56.68 99 9 243
1885 SI MM 15:00:00 NR -24.24 56.21 318 318 _____P________ -1 -24.24 56.21 99 9 243
1885 SI MM 18:00:00 NR -24.44 55.77 335 335 _____P________ -1 -24.44 55.77 99 9 244
1885 SI MM 21:00:00 NR -24.63 55.34 359 359 _____P________ -1 -24.63 55.34 99 8 244
1885 SI MM 1885-01-29 00:00:00 NR -24.81 54.95 386 386 _____P________ -1 -24.81 54.95 99 8 244
1885 SI MM 03:00:00 NR -24.97 54.60 415 415 _____P________ -1 -24.97 54.60 99 7 244
1885 SI MM 06:00:00 NR -25.10 54.30 reunion 434 434 _____O________ -1 -25.10 54.30 99 9.90 5 244
1885 SI MM 09:00:00 NR -25.21 54.06 451 451 _____P________ -1 -25.21 54.06 99 4 243
1885 SI MM 12:00:00 NR -25.29 53.88 469 469 _____P________ -1 -25.29 53.88 99 3 243
1885 SI MM 15:00:00 NR -25.36 53.74 486 486 _____P________ -1 -25.36 53.74 99 2 242
1885 SI MM 18:00:00 NR -25.41 53.65 489 489 _____P________ -1 -25.41 53.65 99 2 239
1885 SI MM 21:00:00 NR -25.44 53.58 489 489 _____P________ -1 -25.44 53.58 99 1 237
1885 SI MM 1885-01-30 00:00:00 NR -25.47 53.54 504 504 _____P________ -1 -25.47 53.54 99 1 230
1885 SI MM 03:00:00 NR -25.48 53.52 504 504 _____P________ -1 -25.48 53.52 99 1 232
1885 SI MM 06:00:00 NR -25.50 53.50 reunion 504 _____O________ -1 -25.50 53.50 99 9.90 0 0